createdAt,value
2019-02-24T00:00:47.599Z,34.59
2019-02-24T00:05:56.858Z,35.13
2019-02-24T00:11:04.591Z,35.25
2019-02-24T00:16:12.023Z,35.44
2019-02-24T00:21:17.927Z,35.39
2019-02-24T00:26:24.233Z,35.12
2019-02-24T00:31:31.471Z,35.01
2019-02-24T00:36:37.770Z,35.39
2019-02-24T00:41:43.660Z,34.96
2019-02-24T00:46:50.097Z,34.84
2019-02-24T00:51:55.930Z,34.87
2019-02-24T00:57:01.544Z,34.96
2019-02-24T01:02:07.403Z,35.23
2019-02-24T01:07:13.232Z,35.47
2019-02-24T01:12:18.831Z,35.69
2019-02-24T01:17:25.506Z,36.28
2019-02-24T01:22:32.597Z,35.67
2019-02-24T01:27:38.609Z,35.82
2019-02-24T01:32:45.269Z,35.97
2019-02-24T01:37:51.066Z,35.71
2019-02-24T01:42:57.581Z,35.85
2019-02-24T01:48:03.270Z,35.83
2019-02-24T01:53:09.536Z,36.23
2019-02-24T01:58:16.509Z,35.70
2019-02-24T02:03:22.516Z,36.26
2019-02-24T02:08:29.617Z,35.67
2019-02-24T02:13:35.244Z,34.98
2019-02-24T02:18:41.869Z,34.55
2019-02-24T02:23:47.852Z,34.73
2019-02-24T02:28:53.899Z,34.99
2019-02-24T02:33:59.827Z,35.29
2019-02-24T02:39:06.685Z,35.76
2019-02-24T02:44:13.191Z,36.65
2019-02-24T02:49:19.261Z,36.90
2019-02-24T02:54:25.128Z,37.15
2019-02-24T02:59:31.065Z,37.05
2019-02-24T03:04:38.406Z,37.20
2019-02-24T03:09:44.781Z,37.18
2019-02-24T03:14:51.832Z,37.18
2019-02-24T03:19:57.470Z,36.53
2019-02-24T03:25:04.023Z,36.76
2019-02-24T03:30:10.653Z,36.60
2019-02-24T03:35:16.355Z,36.52
2019-02-24T03:40:23.156Z,36.77
2019-02-24T03:45:29.863Z,37.15
2019-02-24T03:50:36.053Z,37.64
2019-02-24T03:55:41.691Z,38.35
2019-02-24T04:00:47.615Z,38.39
2019-02-24T04:05:53.138Z,38.60
2019-02-24T04:10:59.003Z,38.14
2019-02-24T04:16:05.653Z,38.68
2019-02-24T04:21:11.398Z,39.49
2019-02-24T04:26:17.397Z,40.72
2019-02-24T04:31:25.221Z,40.38
2019-02-24T04:36:30.868Z,40.62
2019-02-24T04:41:38.456Z,40.56
2019-02-24T04:46:45.444Z,40.53
2019-02-24T04:51:51.357Z,40.62
2019-02-24T04:56:57.817Z,40.39
2019-02-24T05:02:03.633Z,40.07
2019-02-24T05:07:10.076Z,39.44
2019-02-24T05:12:16.190Z,39.10
2019-02-24T05:17:21.917Z,38.86
2019-02-24T05:22:28.165Z,38.80
2019-02-24T05:27:34.101Z,38.85
2019-02-24T05:32:39.959Z,38.12
2019-02-24T05:37:45.519Z,38.10
2019-02-24T05:42:51.681Z,38.50
2019-02-24T05:47:59.097Z,38.34
2019-02-24T05:53:05.160Z,38.19
2019-02-24T05:58:11.159Z,38.42
2019-02-24T06:03:16.845Z,38.24
2019-02-24T06:08:22.886Z,38.39
2019-02-24T06:13:29.020Z,38.11
2019-02-24T06:18:35.168Z,37.13
2019-02-24T06:23:41.206Z,36.56
2019-02-24T06:28:47.545Z,36.81
2019-02-24T06:33:53.501Z,37.19
2019-02-24T06:38:59.587Z,38.58
2019-02-24T06:44:05.306Z,39.35
2019-02-24T06:49:11.150Z,39.26
2019-02-24T06:54:17.575Z,39.85
2019-02-24T06:59:24.487Z,39.61
2019-02-24T07:04:30.680Z,39.19
2019-02-24T07:09:36.420Z,38.93
2019-02-24T07:14:42.163Z,39.19
2019-02-24T07:19:47.856Z,38.90
2019-02-24T07:24:55.408Z,38.77
2019-02-24T07:30:03.280Z,38.33
2019-02-24T07:35:09.152Z,38.13
2019-02-24T07:40:15.264Z,38.56
2019-02-24T07:45:20.992Z,38.54
2019-02-24T07:50:26.602Z,38.72
2019-02-24T07:55:32.723Z,37.86
2019-02-24T08:00:38.877Z,38.40
2019-02-24T08:05:44.456Z,37.88
2019-02-24T08:10:50.090Z,37.39
2019-02-24T08:15:56.076Z,37.61
2019-02-24T08:21:02.121Z,37.36
2019-02-24T08:26:08.162Z,37.01
2019-02-24T08:31:14.218Z,37.28
2019-02-24T08:36:19.846Z,36.24
2019-02-24T08:41:26.882Z,36.86
2019-02-24T08:46:33.578Z,36.15
2019-02-24T08:51:40.517Z,36.95
2019-02-24T08:56:47.893Z,36.37
2019-02-24T09:01:55.224Z,35.76
2019-02-24T09:07:03.772Z,35.42
2019-02-24T09:12:10.007Z,34.91
2019-02-24T09:17:15.867Z,35.08
2019-02-24T09:22:21.981Z,34.22
2019-02-24T09:27:28.561Z,34.56
2019-02-24T09:32:34.943Z,34.77
2019-02-24T09:37:41.075Z,33.39
2019-02-24T09:42:47.352Z,33.38
2019-02-24T09:47:53.519Z,33.36
2019-02-24T09:53:00.690Z,32.30
2019-02-24T09:58:06.635Z,30.04
2019-02-24T10:03:12.782Z,30.01
2019-02-24T10:08:19.351Z,29.52
2019-02-24T10:13:26.360Z,29.97
2019-02-24T10:18:33.378Z,27.47
2019-02-24T10:23:40.428Z,28.63
2019-02-24T10:28:47.732Z,27.22
2019-02-24T10:33:54.622Z,25.95
2019-02-24T10:39:00.708Z,25.26
2019-02-24T10:44:08.610Z,25.20
2019-02-24T10:49:15.321Z,25.05
2019-02-24T10:54:22.854Z,24.07
2019-02-24T10:59:29.041Z,24.03
2019-02-24T11:04:36.391Z,23.19
2019-02-24T11:09:44.267Z,21.99
2019-02-24T11:14:51.031Z,22.61
2019-02-24T11:19:57.149Z,22.20
2019-02-24T11:25:03.339Z,21.59
2019-02-24T11:30:13.076Z,20.53
2019-02-24T11:35:20.684Z,20.26
2019-02-24T11:40:27.178Z,18.21
2019-02-24T11:45:33.894Z,17.80
2019-02-24T11:50:40.832Z,15.75
2019-02-24T11:55:48.049Z,14.50
2019-02-24T12:00:53.951Z,17.06
2019-02-24T12:06:00.643Z,18.18
2019-02-24T12:11:06.668Z,18.43
2019-02-24T12:16:12.624Z,18.97
2019-02-24T12:21:20.135Z,18.05
2019-02-24T12:26:25.743Z,17.82
2019-02-24T12:31:33.196Z,17.79
2019-02-24T12:36:41.929Z,18.62
2019-02-24T12:41:49.904Z,17.48
2019-02-24T12:46:57.147Z,18.18
2019-02-24T12:52:09.757Z,17.89
2019-02-24T12:57:20.334Z,17.30
2019-02-24T13:02:26.855Z,17.03
2019-02-24T13:07:36.245Z,15.64
2019-02-24T13:12:44.123Z,16.93
2019-02-24T13:17:54.374Z,16.67
2019-02-24T13:23:04.205Z,15.90
2019-02-24T13:28:11.141Z,15.54
2019-02-24T13:33:19.619Z,15.95
2019-02-24T13:38:27.698Z,14.85
2019-02-24T13:43:36.622Z,15.51
2019-02-24T13:48:44.107Z,15.25
2019-02-24T13:53:53.288Z,15.47
2019-02-24T13:59:00.309Z,15.34
2019-02-24T14:04:11.129Z,20.23
2019-02-24T14:09:18.948Z,17.46
2019-02-24T14:14:27.936Z,13.83
2019-02-24T14:19:37.988Z,14.86
2019-02-24T14:24:44.110Z,15.59
2019-02-24T14:29:53.054Z,14.19
2019-02-24T14:35:00.266Z,15.18
2019-02-24T14:40:10.806Z,15.98
2019-02-24T14:45:31.612Z,13.99
2019-02-24T14:50:41.151Z,15.13
2019-02-24T14:55:52.314Z,14.23
2019-02-24T15:01:02.294Z,15.08
2019-02-24T15:06:08.500Z,14.45
2019-02-24T15:11:17.611Z,14.24
2019-02-24T15:16:26.671Z,14.49
2019-02-24T15:21:43.686Z,14.93
2019-02-24T15:26:55.574Z,14.59
2019-02-24T15:32:04.956Z,14.98
2019-02-24T15:37:16.227Z,14.52
2019-02-24T15:42:26.362Z,13.87
2019-02-24T15:47:34.011Z,13.57
2019-02-24T15:52:41.580Z,13.31
2019-02-24T15:57:48.227Z,13.75
2019-02-24T16:03:01.482Z,13.96
2019-02-24T16:08:05.175Z,14.55
2019-02-24T16:13:17.008Z,14.42
2019-02-24T16:18:21.651Z,14.41
2019-02-24T16:23:27.686Z,14.32
2019-02-24T16:28:34.392Z,15.51
2019-02-24T16:33:42.328Z,15.81
2019-02-24T16:38:48.099Z,16.23
2019-02-24T16:43:56.072Z,16.63
2019-02-24T16:49:03.990Z,17.46
2019-02-24T16:54:10.499Z,17.74
2019-02-24T16:59:17.668Z,17.56
2019-02-24T17:04:23.816Z,17.73
2019-02-24T17:09:29.624Z,17.85
2019-02-24T17:14:36.400Z,18.13
2019-02-24T17:19:43.821Z,17.88
2019-02-24T17:24:49.899Z,18.31
2019-02-24T17:29:56.081Z,18.48
2019-02-24T17:35:02.875Z,18.61
2019-02-24T17:40:19.401Z,18.95
2019-02-24T17:45:27.135Z,19.52
2019-02-24T17:50:32.949Z,19.69
2019-02-24T17:55:38.758Z,19.97
2019-02-24T18:00:49.929Z,20.49
2019-02-24T18:05:55.623Z,21.27
2019-02-24T18:11:01.363Z,21.50
2019-02-24T18:16:07.410Z,21.32
2019-02-24T18:21:12.969Z,21.17
2019-02-24T18:26:20.745Z,21.33
2019-02-24T18:31:26.871Z,21.16
2019-02-24T18:36:32.679Z,21.65
2019-02-24T18:41:38.465Z,22.39
2019-02-24T18:46:45.361Z,22.53
2019-02-24T18:51:51.057Z,21.92
2019-02-24T18:56:56.605Z,21.94
2019-02-24T19:02:02.179Z,21.72
2019-02-24T19:07:08.040Z,21.37
2019-02-24T19:12:13.830Z,21.33
2019-02-24T19:17:19.385Z,22.28
2019-02-24T19:22:25.216Z,22.44
2019-02-24T19:27:31.066Z,22.14
2019-02-24T19:32:37.088Z,22.46
2019-02-24T19:37:43.947Z,22.20
2019-02-24T19:42:50.899Z,22.29
2019-02-24T19:47:56.515Z,22.83
2019-02-24T19:53:02.088Z,22.99
2019-02-24T19:58:07.907Z,22.90
2019-02-24T20:03:14.135Z,23.08
2019-02-24T20:08:19.765Z,23.32
2019-02-24T20:13:25.812Z,23.79
2019-02-24T20:18:31.535Z,24.19
2019-02-24T20:23:37.869Z,24.20
2019-02-24T20:28:45.053Z,24.12
2019-02-24T20:33:51.352Z,24.41
2019-02-24T20:38:57.577Z,24.78
2019-02-24T20:44:03.393Z,24.41
2019-02-24T20:49:09.113Z,24.54
2019-02-24T20:54:15.137Z,24.71
2019-02-24T20:59:21.466Z,25.67
2019-02-24T21:04:27.457Z,25.79
2019-02-24T21:09:34.001Z,26.09
2019-02-24T21:14:40.839Z,26.61
2019-02-24T21:19:47.108Z,27.09
2019-02-24T21:24:53.170Z,27.16
2019-02-24T21:29:59.143Z,26.52
2019-02-24T21:35:06.518Z,26.50
2019-02-24T21:40:19.327Z,26.94
2019-02-24T21:45:26.627Z,26.52
2019-02-24T21:50:32.578Z,26.51
2019-02-24T21:55:38.237Z,26.16
2019-02-24T22:00:44.107Z,26.57
2019-02-24T22:05:49.939Z,26.52
2019-02-24T22:10:55.504Z,27.02
2019-02-24T22:16:01.446Z,26.49
2019-02-24T22:21:07.009Z,26.69
2019-02-24T22:26:12.758Z,27.55
2019-02-24T22:31:18.324Z,27.37
2019-02-24T22:36:24.731Z,28.07
2019-02-24T22:41:30.361Z,28.68
2019-02-24T22:46:35.929Z,28.24
2019-02-24T22:51:43.931Z,28.33
2019-02-24T22:56:50.268Z,27.91
2019-02-24T23:01:56.280Z,28.12
2019-02-24T23:07:02.117Z,28.31
2019-02-24T23:12:07.837Z,29.13
2019-02-24T23:17:13.463Z,29.61
2019-02-24T23:22:19.328Z,29.96
2019-02-24T23:27:25.216Z,29.73
2019-02-24T23:32:31.416Z,29.53
2019-02-24T23:37:36.970Z,29.35
2019-02-24T23:42:42.799Z,29.24
2019-02-24T23:47:48.377Z,29.22
2019-02-24T23:52:54.243Z,29.26
2019-02-24T23:58:00.208Z,29.49
